createdAt,value
2023-04-28T00:01:34.647Z,7.60
2023-04-28T00:04:02.169Z,7.20
2023-04-28T00:06:30.887Z,7.93
2023-04-28T00:08:57.496Z,7.10
2023-04-28T00:11:23.985Z,7.60
2023-04-28T00:13:50.592Z,8.55
2023-04-28T00:16:17.394Z,7.90
2023-04-28T00:18:44.263Z,8.60
2023-04-28T00:21:10.773Z,8.50
2023-04-28T00:23:37.321Z,8.13
2023-04-28T00:26:03.985Z,7.85
2023-04-28T00:28:34.670Z,7.90
2023-04-28T00:31:02.456Z,7.50
2023-04-28T00:33:28.944Z,7.50
2023-04-28T00:36:01.875Z,7.78
2023-04-28T00:38:28.611Z,7.13
2023-04-28T00:40:55.263Z,6.78
2023-04-28T00:43:21.888Z,6.43
2023-04-28T00:45:52.133Z,6.95
2023-04-28T00:48:19.437Z,7.35
2023-04-28T00:50:47.694Z,7.45
2023-04-28T00:53:14.767Z,7.10
2023-04-28T00:55:41.272Z,6.38
2023-04-28T00:58:08.214Z,6.50
2023-04-28T01:00:35.103Z,6.43
2023-04-28T01:03:02.080Z,7.20
2023-04-28T01:05:30.658Z,6.38
2023-04-28T01:07:57.240Z,6.55
2023-04-28T01:10:23.788Z,6.60
2023-04-28T01:12:50.344Z,6.60
2023-04-28T01:15:19.090Z,6.13
2023-04-28T01:17:48.669Z,6.40
2023-04-28T01:20:15.586Z,6.70
2023-04-28T01:22:42.150Z,6.30
2023-04-28T01:25:08.944Z,5.95
2023-04-28T01:27:35.722Z,6.47
2023-04-28T01:30:02.367Z,6.85
2023-04-28T01:32:29.043Z,7.63
2023-04-28T01:34:55.663Z,6.75
2023-04-28T01:37:22.209Z,6.65
2023-04-28T01:39:48.784Z,5.93
2023-04-28T01:42:15.364Z,5.40
2023-04-28T01:44:41.918Z,6.50
2023-04-28T01:47:08.460Z,6.72
2023-04-28T01:49:34.969Z,6.78
2023-04-28T01:52:01.501Z,5.93
2023-04-28T01:54:28.276Z,7.00
2023-04-28T01:56:54.847Z,6.50
2023-04-28T01:59:21.382Z,6.32
2023-04-28T02:01:47.964Z,6.47
2023-04-28T02:04:14.632Z,5.93
2023-04-28T02:06:41.858Z,6.57
2023-04-28T02:09:08.361Z,6.13
2023-04-28T02:11:34.905Z,6.93
2023-04-28T02:14:01.555Z,6.05
2023-04-28T02:16:28.198Z,5.93
2023-04-28T02:18:54.836Z,6.57
2023-04-28T02:21:21.423Z,6.70
2023-04-28T02:23:48.463Z,6.63
2023-04-28T02:26:15.176Z,6.25
2023-04-28T02:28:41.762Z,6.95
2023-04-28T02:31:10.160Z,7.07
2023-04-28T02:33:37.784Z,6.82
2023-04-28T02:36:06.211Z,6.15
2023-04-28T02:38:32.957Z,7.40
2023-04-28T02:41:05.379Z,6.22
2023-04-28T02:43:32.659Z,6.68
2023-04-28T02:45:59.480Z,7.10
2023-04-28T02:48:26.453Z,7.53
2023-04-28T02:50:53.178Z,6.15
2023-04-28T02:53:20.887Z,6.95
2023-04-28T02:55:47.579Z,6.10
2023-04-28T02:58:14.439Z,5.97
2023-04-28T03:00:41.125Z,6.82
2023-04-28T03:03:07.765Z,5.82
2023-04-28T03:05:34.513Z,6.93
2023-04-28T03:08:01.105Z,5.95
2023-04-28T03:10:27.826Z,6.50
2023-04-28T03:12:54.364Z,6.90
2023-04-28T03:15:21.131Z,5.75
2023-04-28T03:17:47.739Z,7.20
2023-04-28T03:20:14.343Z,6.32
2023-04-28T03:22:40.913Z,6.28
2023-04-28T03:25:07.820Z,6.93
2023-04-28T03:27:34.391Z,5.45
2023-04-28T03:30:00.941Z,5.68
2023-04-28T03:32:27.526Z,4.80
2023-04-28T03:34:54.061Z,6.03
2023-04-28T03:37:20.580Z,6.03
2023-04-28T03:39:47.105Z,6.20
2023-04-28T03:42:13.761Z,5.57
2023-04-28T03:44:40.474Z,5.80
2023-04-28T03:47:06.989Z,5.70
2023-04-28T03:49:33.507Z,6.30
2023-04-28T03:52:00.081Z,6.03
2023-04-28T03:55:55.687Z,5.38
2023-04-28T03:57:39.853Z,6.40
2023-04-28T04:00:07.796Z,6.35
2023-04-28T04:02:34.605Z,5.55
2023-04-28T04:05:01.482Z,4.70
2023-04-28T04:07:28.189Z,6.28
2023-04-28T04:09:54.674Z,5.75
2023-04-28T04:12:21.188Z,5.63
2023-04-28T04:14:47.701Z,5.70
2023-04-28T04:17:14.203Z,5.72
2023-04-28T04:19:41.441Z,5.78
2023-04-28T04:22:07.940Z,5.40
2023-04-28T04:24:34.629Z,5.63
2023-04-28T04:27:01.215Z,4.82
2023-04-28T04:29:27.762Z,4.68
2023-04-28T04:31:54.327Z,4.65
2023-04-28T04:34:20.859Z,6.10
2023-04-28T04:36:47.417Z,4.68
2023-04-28T04:39:13.929Z,4.35
2023-04-28T04:41:41.651Z,5.93
2023-04-28T04:44:08.210Z,4.35
2023-04-28T04:46:34.732Z,5.75
2023-04-28T04:49:01.300Z,3.33
2023-04-28T04:51:28.137Z,3.45
2023-04-28T04:53:55.329Z,5.72
2023-04-28T04:56:21.847Z,5.28
2023-04-28T04:58:48.383Z,5.22
2023-04-28T05:01:14.923Z,5.55
2023-04-28T05:03:41.520Z,3.25
2023-04-28T05:06:08.099Z,5.85
2023-04-28T05:08:34.673Z,4.50
2023-04-28T05:11:01.354Z,6.40
2023-04-28T05:13:27.851Z,6.18
2023-04-28T05:15:54.467Z,6.25
2023-04-28T05:18:21.535Z,6.15
2023-04-28T05:20:48.556Z,3.33
2023-04-28T05:23:15.075Z,6.97
2023-04-28T05:25:41.730Z,6.68
2023-04-28T05:28:10.451Z,6.03
2023-04-28T05:30:37.007Z,6.43
2023-04-28T05:33:03.831Z,7.28
2023-04-28T05:35:31.632Z,6.30
2023-04-28T05:37:59.317Z,5.63
2023-04-28T05:40:26.459Z,5.60
2023-04-28T05:42:53.240Z,6.13
2023-04-28T05:45:19.952Z,5.50
2023-04-28T05:47:46.547Z,5.82
2023-04-28T05:50:13.191Z,6.95
2023-04-28T05:52:39.724Z,5.60
2023-04-28T05:55:06.738Z,6.05
2023-04-28T05:57:41.773Z,6.80
2023-04-28T06:00:16.648Z,5.85
2023-04-28T06:02:43.341Z,6.80
2023-04-28T06:05:10.763Z,5.55
2023-04-28T06:07:39.332Z,5.40
2023-04-28T06:10:06.540Z,6.18
2023-04-28T06:12:33.115Z,5.68
2023-04-28T06:14:59.647Z,5.80
2023-04-28T06:17:26.294Z,16.08
2023-04-28T06:19:54.480Z,5.15
2023-04-28T06:22:21.054Z,5.60
2023-04-28T06:24:49.634Z,5.15
2023-04-28T06:27:16.208Z,5.38
2023-04-28T06:29:42.747Z,5.90
2023-04-28T06:32:09.604Z,5.22
2023-04-28T06:34:37.619Z,5.05
2023-04-28T06:37:04.289Z,4.72
2023-04-28T06:39:30.825Z,5.20
2023-04-28T06:41:57.777Z,5.15
2023-04-28T06:44:24.683Z,4.38
2023-04-28T06:46:51.425Z,6.22
2023-04-28T06:49:18.144Z,5.25
2023-04-28T06:51:45.456Z,5.07
2023-04-28T06:54:12.008Z,4.70
2023-04-28T06:56:38.537Z,5.10
2023-04-28T06:59:05.283Z,4.10
2023-04-28T07:01:31.900Z,4.80
2023-04-28T07:03:58.579Z,5.53
2023-04-28T07:06:27.456Z,5.68
2023-04-28T07:08:54.196Z,4.70
2023-04-28T07:11:20.777Z,5.75
2023-04-28T07:13:49.369Z,5.43
2023-04-28T07:16:16.156Z,6.72
2023-04-28T07:18:42.738Z,5.43
2023-04-28T07:21:11.901Z,4.03
2023-04-28T07:23:38.947Z,4.07
2023-04-28T07:26:05.558Z,4.57
2023-04-28T07:28:32.248Z,4.55
2023-04-28T07:30:58.787Z,4.82
2023-04-28T07:33:25.440Z,4.40
2023-04-28T07:35:53.104Z,4.38
2023-04-28T07:38:20.549Z,4.40
2023-04-28T07:40:47.602Z,4.82
2023-04-28T07:43:14.524Z,4.32
2023-04-28T07:45:41.506Z,4.32
2023-04-28T07:48:08.508Z,4.70
2023-04-28T07:50:35.097Z,5.20
2023-04-28T07:53:01.691Z,4.85
2023-04-28T07:55:28.876Z,4.68
2023-04-28T07:57:55.452Z,5.45
2023-04-28T08:00:22.097Z,4.32
2023-04-28T08:02:48.783Z,4.43
2023-04-28T08:05:17.166Z,5.00
2023-04-28T08:07:43.996Z,4.38
2023-04-28T08:10:11.743Z,3.92
2023-04-28T08:12:39.225Z,4.40
2023-04-28T08:15:06.363Z,4.05
2023-04-28T08:17:32.940Z,4.00
2023-04-28T08:19:59.478Z,3.90
2023-04-28T08:22:26.056Z,3.80
2023-04-28T08:24:52.667Z,4.15
2023-04-28T08:27:19.396Z,5.57
2023-04-28T08:29:45.943Z,4.75
2023-04-28T08:32:12.512Z,3.83
2023-04-28T08:34:39.036Z,3.65
2023-04-28T08:37:06.928Z,3.78
2023-04-28T08:39:35.412Z,3.78
2023-04-28T08:42:05.736Z,3.88
2023-04-28T08:44:42.080Z,3.15
2023-04-28T08:47:15.093Z,3.58
2023-04-28T08:49:42.168Z,3.58
2023-04-28T08:52:13.626Z,3.75
2023-04-28T08:54:41.560Z,3.50
2023-04-28T08:57:11.595Z,3.50
2023-04-28T08:59:41.706Z,4.80
2023-04-28T09:02:09.192Z,3.20
2023-04-28T09:04:36.426Z,3.78
2023-04-28T09:07:03.167Z,4.13
2023-04-28T09:09:34.721Z,3.45
2023-04-28T09:12:04.922Z,3.53
2023-04-28T09:14:35.204Z,4.95
2023-04-28T09:17:03.186Z,3.47
2023-04-28T09:19:34.735Z,3.70
2023-04-28T09:22:07.726Z,4.47
2023-04-28T09:24:43.234Z,2.83
2023-04-28T09:27:12.005Z,3.80
2023-04-28T09:29:39.519Z,2.60
2023-04-28T09:32:17.173Z,2.92
2023-04-28T09:34:51.751Z,3.40
2023-04-28T09:37:21.095Z,2.70
2023-04-28T09:39:50.654Z,2.90
2023-04-28T09:42:42.990Z,5.45
2023-04-28T09:45:14.229Z,3.10
2023-04-28T09:47:43.643Z,3.00
2023-04-28T09:50:15.179Z,2.20
2023-04-28T09:52:44.295Z,2.65
2023-04-28T09:55:12.153Z,3.20
2023-04-28T09:57:39.758Z,2.40
2023-04-28T10:00:09.215Z,3.20
2023-04-28T10:05:09.695Z,3.45
2023-04-28T10:07:37.342Z,3.15
2023-04-28T10:10:04.496Z,3.15
2023-04-28T10:12:32.649Z,2.60
2023-04-28T10:15:00.234Z,3.50
2023-04-28T10:17:29.373Z,3.00
2023-04-28T10:19:57.219Z,2.95
2023-04-28T10:22:48.202Z,2.75
2023-04-28T10:25:25.372Z,2.80
2023-04-28T10:27:53.145Z,3.10
2023-04-28T10:30:28.010Z,3.05
2023-04-28T10:33:25.402Z,3.22
2023-04-28T10:35:52.292Z,2.72
2023-04-28T10:38:23.283Z,2.90
2023-04-28T10:40:51.850Z,3.58
2023-04-28T10:43:31.225Z,2.95
2023-04-28T10:46:00.693Z,2.88
2023-04-28T10:48:30.829Z,2.78
2023-04-28T10:51:03.482Z,2.45
2023-04-28T10:53:45.259Z,2.90
2023-04-28T10:56:15.432Z,2.97
2023-04-28T10:58:43.657Z,3.40
2023-04-28T11:01:19.559Z,3.40
2023-04-28T11:03:46.789Z,3.20
2023-04-28T11:06:23.711Z,3.33
2023-04-28T11:08:50.309Z,3.20
2023-04-28T11:11:21.374Z,3.47
2023-04-28T11:13:48.945Z,3.35
2023-04-28T11:16:17.771Z,3.42
2023-04-28T11:18:56.682Z,3.97
2023-04-28T11:21:25.012Z,3.25
2023-04-28T11:23:52.464Z,3.60
2023-04-28T11:26:19.980Z,3.83
2023-04-28T11:28:51.401Z,4.43
2023-04-28T11:31:22.608Z,3.80
2023-04-28T11:34:01.166Z,4.18
2023-04-28T11:36:39.004Z,3.85
2023-04-28T11:39:08.204Z,4.22
2023-04-28T11:44:16.695Z,3.88
2023-04-28T11:46:56.170Z,5.10
2023-04-28T11:49:31.046Z,4.18
2023-04-28T11:52:00.463Z,4.32
2023-04-28T11:54:29.157Z,4.05
2023-04-28T11:56:57.447Z,4.50
2023-04-28T11:59:29.349Z,3.88
2023-04-28T12:02:01.731Z,3.25
2023-04-28T12:04:29.822Z,3.33
2023-04-28T12:07:02.107Z,4.53
2023-04-28T12:09:28.955Z,4.63
2023-04-28T12:11:57.533Z,3.83
2023-04-28T12:14:24.927Z,4.10
2023-04-28T12:16:52.273Z,3.58
2023-04-28T12:19:20.181Z,4.50
2023-04-28T12:22:06.364Z,4.47
2023-04-28T12:24:33.383Z,5.00
2023-04-28T12:27:21.975Z,4.40
2023-04-28T12:29:48.864Z,4.00
2023-04-28T12:32:15.960Z,4.38
2023-04-28T12:34:44.473Z,3.70
2023-04-28T12:37:12.270Z,3.88
2023-04-28T12:39:40.576Z,3.60
2023-04-28T12:42:07.519Z,3.53
2023-04-28T12:44:38.395Z,3.80
2023-04-28T12:47:07.364Z,4.53
2023-04-28T12:49:35.800Z,4.72
2023-04-28T12:52:03.500Z,4.40
2023-04-28T12:54:30.550Z,5.05
2023-04-28T12:56:57.150Z,5.78
2023-04-28T12:59:24.002Z,5.78
2023-04-28T13:01:51.227Z,5.40
2023-04-28T13:04:19.296Z,5.82
2023-04-28T13:06:46.521Z,6.00
2023-04-28T13:09:15.312Z,5.90
2023-04-28T13:11:42.647Z,5.97
2023-04-28T13:14:09.265Z,6.63
2023-04-28T13:16:36.355Z,6.22
2023-04-28T13:19:04.343Z,6.72
2023-04-28T13:21:31.904Z,6.82
2023-04-28T13:23:58.658Z,7.07
2023-04-28T13:26:26.882Z,6.53
2023-04-28T13:28:53.538Z,7.65
2023-04-28T13:31:20.229Z,8.20
2023-04-28T13:33:47.173Z,7.55
2023-04-28T13:36:13.780Z,7.82
2023-04-28T13:38:40.443Z,8.63
2023-04-28T13:41:07.709Z,7.68
2023-04-28T13:43:34.326Z,8.70
2023-04-28T13:46:01.715Z,7.20
2023-04-28T13:48:29.314Z,7.22
2023-04-28T13:50:55.984Z,8.13
2023-04-28T13:53:22.782Z,8.10
2023-04-28T13:55:51.297Z,8.48
2023-04-28T13:58:17.850Z,9.20
2023-04-28T14:00:44.463Z,8.15
2023-04-28T14:03:11.693Z,8.85
2023-04-28T14:05:49.954Z,7.85
2023-04-28T14:08:27.097Z,8.55
2023-04-28T14:11:14.817Z,8.63
2023-04-28T14:13:41.398Z,8.45
2023-04-28T14:16:08.862Z,8.02
2023-04-28T14:18:35.776Z,9.15
2023-04-28T14:21:03.252Z,8.73
2023-04-28T14:23:29.948Z,8.48
2023-04-28T14:25:58.000Z,8.13
2023-04-28T14:28:24.614Z,8.20
2023-04-28T14:30:51.495Z,8.77
2023-04-28T14:33:18.145Z,8.75
2023-04-28T14:35:44.769Z,8.85
2023-04-28T14:38:13.400Z,7.65
2023-04-28T14:40:39.976Z,8.18
2023-04-28T14:43:06.795Z,7.90
2023-04-28T14:45:33.421Z,8.50
2023-04-28T14:48:00.134Z,7.88
2023-04-28T14:50:26.798Z,8.30
2023-04-28T14:52:53.343Z,8.27
2023-04-28T14:55:20.086Z,7.85
2023-04-28T14:57:48.215Z,8.15
2023-04-28T15:00:15.459Z,8.32
2023-04-28T15:02:42.561Z,8.43
2023-04-28T15:05:09.763Z,8.05
2023-04-28T15:07:36.494Z,8.35
2023-04-28T15:10:03.186Z,8.15
2023-04-28T15:12:30.552Z,6.95
2023-04-28T15:14:57.631Z,8.63
2023-04-28T15:17:24.547Z,7.95
2023-04-28T15:19:51.590Z,8.73
2023-04-28T15:22:18.487Z,7.43
2023-04-28T15:24:45.110Z,6.78
2023-04-28T15:27:11.743Z,8.00
2023-04-28T15:29:38.717Z,7.88
2023-04-28T15:32:05.650Z,7.97
2023-04-28T15:34:33.854Z,7.10
2023-04-28T15:37:01.422Z,8.02
2023-04-28T15:39:31.233Z,6.13
2023-04-28T15:41:58.791Z,7.72
2023-04-28T15:44:25.325Z,6.65
2023-04-28T15:46:52.483Z,7.13
2023-04-28T15:49:19.273Z,7.55
2023-04-28T15:51:45.869Z,6.45
2023-04-28T15:54:12.464Z,6.18
2023-04-28T15:56:39.074Z,6.38
2023-04-28T15:59:05.625Z,6.80
2023-04-28T16:01:32.406Z,7.35
2023-04-28T16:03:59.191Z,6.72
2023-04-28T16:06:26.001Z,6.43
2023-04-28T16:08:52.707Z,8.48
2023-04-28T16:11:20.452Z,6.85
2023-04-28T16:13:47.316Z,5.07
2023-04-28T16:16:14.248Z,5.10
2023-04-28T16:18:40.977Z,4.80
2023-04-28T16:21:07.720Z,4.30
2023-04-28T16:23:34.710Z,4.93
2023-04-28T16:26:01.491Z,4.57
2023-04-28T16:28:28.162Z,5.05
2023-04-28T16:30:54.734Z,5.88
2023-04-28T16:33:21.282Z,6.72
2023-04-28T16:36:12.839Z,5.68
2023-04-28T16:38:39.635Z,5.15
2023-04-28T16:41:06.352Z,6.05
2023-04-28T16:43:33.069Z,4.93
2023-04-28T16:46:00.098Z,5.72
2023-04-28T16:48:27.881Z,5.60
2023-04-28T16:50:54.447Z,6.10
2023-04-28T16:53:21.019Z,5.35
2023-04-28T16:55:47.822Z,5.57
2023-04-28T16:58:17.501Z,5.85
2023-04-28T17:00:44.078Z,5.80
2023-04-28T17:03:11.571Z,6.53
2023-04-28T17:05:38.318Z,5.22
2023-04-28T17:08:04.964Z,8.90
2023-04-28T17:10:32.632Z,6.20
2023-04-28T17:12:59.381Z,5.85
2023-04-28T17:15:27.190Z,5.75
2023-04-28T17:17:53.956Z,4.93
2023-04-28T17:20:21.485Z,5.50
2023-04-28T17:22:48.748Z,5.40
2023-04-28T17:25:16.678Z,4.43
2023-04-28T17:27:43.600Z,4.15
2023-04-28T17:30:14.397Z,3.88
2023-04-28T17:32:41.446Z,3.70
2023-04-28T17:35:09.000Z,3.88
2023-04-28T17:37:37.134Z,5.32
2023-04-28T17:40:04.666Z,4.97
2023-04-28T17:42:34.011Z,3.58
2023-04-28T17:45:00.575Z,3.40
2023-04-28T17:47:27.755Z,4.68
2023-04-28T17:49:54.706Z,4.70
2023-04-28T17:52:21.260Z,4.13
2023-04-28T17:54:48.144Z,4.25
2023-04-28T17:57:14.902Z,4.43
2023-04-28T17:59:42.628Z,4.63
2023-04-28T18:02:10.198Z,4.32
2023-04-28T18:04:37.718Z,4.63
2023-04-28T18:07:04.350Z,3.88
2023-04-28T18:09:31.769Z,4.85
2023-04-28T18:11:58.434Z,4.30
2023-04-28T18:14:25.642Z,4.25
2023-04-28T18:16:52.316Z,5.20
2023-04-28T18:19:18.911Z,5.78
2023-04-28T18:21:45.700Z,4.80
2023-04-28T18:24:12.232Z,5.03
2023-04-28T18:26:38.928Z,5.45
2023-04-28T18:29:05.473Z,5.35
2023-04-28T18:31:32.169Z,5.70
2023-04-28T18:33:59.528Z,4.80
2023-04-28T18:36:26.131Z,6.45
2023-04-28T18:38:52.715Z,6.07
2023-04-28T18:41:19.348Z,5.20
2023-04-28T18:43:46.433Z,6.53
2023-04-28T18:46:13.680Z,5.85
2023-04-28T18:48:40.491Z,5.30
2023-04-28T18:51:07.241Z,5.68
2023-04-28T18:53:33.758Z,5.60
2023-04-28T18:56:00.413Z,6.65
2023-04-28T18:58:27.887Z,6.03
2023-04-28T19:00:54.575Z,7.15
2023-04-28T19:03:21.287Z,7.68
2023-04-28T19:05:48.159Z,7.65
2023-04-28T19:08:14.755Z,8.27
2023-04-28T19:10:41.525Z,7.20
2023-04-28T19:13:08.488Z,7.55
2023-04-28T19:15:35.077Z,8.73
2023-04-28T19:18:02.130Z,9.13
2023-04-28T19:20:29.046Z,8.02
2023-04-28T19:22:56.633Z,8.32
2023-04-28T19:25:23.385Z,7.93
2023-04-28T19:27:49.961Z,8.52
2023-04-28T19:30:16.829Z,7.72
2023-04-28T19:32:43.646Z,7.82
2023-04-28T19:35:10.319Z,7.80
2023-04-28T19:37:37.071Z,9.00
2023-04-28T19:40:07.405Z,8.80
2023-04-28T19:42:35.017Z,7.80
2023-04-28T19:45:02.453Z,7.45
2023-04-28T19:47:33.863Z,8.00
2023-04-28T19:50:00.815Z,8.00
2023-04-28T19:52:27.959Z,7.95
2023-04-28T19:54:54.882Z,9.02
2023-04-28T19:57:21.924Z,9.20
2023-04-28T19:59:49.650Z,10.38
2023-04-28T20:02:17.216Z,9.40
2023-04-28T20:04:43.977Z,9.95
2023-04-28T20:07:10.927Z,9.38
2023-04-28T20:09:38.676Z,9.27
2023-04-28T20:12:09.436Z,8.32
2023-04-28T20:14:37.161Z,8.50
2023-04-28T20:17:04.628Z,10.20
2023-04-28T20:19:31.620Z,9.73
2023-04-28T20:21:58.280Z,8.80
2023-04-28T20:24:24.870Z,7.82
2023-04-28T20:26:54.085Z,9.88
2023-04-28T20:31:47.326Z,8.40
2023-04-28T20:34:14.408Z,9.50
2023-04-28T20:36:42.801Z,7.70
2023-04-28T20:39:11.719Z,9.35
2023-04-28T20:41:41.015Z,8.15
2023-04-28T20:44:08.009Z,8.25
2023-04-28T20:46:35.447Z,8.80
2023-04-28T20:49:02.668Z,8.35
2023-04-28T20:51:30.177Z,8.65
2023-04-28T20:53:57.658Z,9.07
2023-04-28T20:56:24.431Z,9.50
2023-04-28T20:58:50.982Z,9.80
2023-04-28T21:01:17.660Z,8.98
2023-04-28T21:03:44.501Z,9.25
2023-04-28T21:06:11.461Z,10.18
2023-04-28T21:08:38.635Z,9.52
2023-04-28T21:11:11.399Z,9.60
2023-04-28T21:13:38.021Z,9.15
2023-04-28T21:16:05.038Z,9.75
2023-04-28T21:18:31.721Z,9.57
2023-04-28T21:20:58.245Z,10.10
2023-04-28T21:23:24.775Z,9.65
2023-04-28T21:25:51.353Z,9.57
2023-04-28T21:28:17.969Z,10.20
2023-04-28T21:30:44.482Z,10.77
2023-04-28T21:33:11.276Z,9.20
2023-04-28T21:35:38.520Z,9.50
2023-04-28T21:38:05.037Z,10.05
2023-04-28T21:40:31.548Z,9.23
2023-04-28T21:42:58.078Z,11.30
2023-04-28T21:45:24.630Z,10.48
2023-04-28T21:47:51.220Z,11.90
2023-04-28T21:50:17.801Z,10.65
2023-04-28T21:52:44.602Z,10.40
2023-04-28T21:55:11.343Z,9.57
2023-04-28T21:57:37.935Z,10.75
2023-04-28T22:00:06.339Z,10.55
2023-04-28T22:02:32.987Z,11.15
2023-04-28T22:04:59.761Z,9.77
2023-04-28T22:07:28.313Z,9.88
2023-04-28T22:09:54.941Z,10.07
2023-04-28T22:12:21.493Z,10.98
2023-04-28T22:14:48.140Z,10.10
2023-04-28T22:17:15.214Z,9.52
2023-04-28T22:19:41.892Z,10.40
2023-04-28T22:22:08.956Z,10.32
2023-04-28T22:24:35.566Z,8.95
2023-04-28T22:27:02.110Z,9.63
2023-04-28T22:29:28.769Z,8.57
2023-04-28T22:31:55.345Z,8.50
2023-04-28T22:34:22.539Z,9.55
2023-04-28T22:36:49.428Z,8.82
2023-04-28T22:39:15.974Z,9.75
2023-04-28T22:41:42.513Z,10.45
2023-04-28T22:44:09.065Z,10.00
2023-04-28T22:46:35.662Z,9.52
2023-04-28T22:49:03.119Z,9.30
2023-04-28T22:51:33.218Z,10.07
2023-04-28T22:53:59.740Z,10.35
2023-04-28T22:56:26.373Z,10.30
2023-04-28T22:58:53.110Z,10.57
2023-04-28T23:01:19.842Z,10.77
2023-04-28T23:03:47.327Z,10.60
2023-04-28T23:06:14.022Z,11.02
2023-04-28T23:08:40.600Z,11.88
2023-04-28T23:11:07.233Z,11.88
2023-04-28T23:13:33.789Z,11.30
2023-04-28T23:16:00.554Z,12.45
2023-04-28T23:18:31.596Z,12.52
2023-04-28T23:20:58.349Z,11.90
2023-04-28T23:23:25.021Z,14.45
2023-04-28T23:25:52.020Z,12.05
2023-04-28T23:28:18.960Z,14.50
2023-04-28T23:30:45.515Z,14.70
2023-04-28T23:33:12.090Z,13.55
2023-04-28T23:35:38.666Z,15.82
2023-04-28T23:38:05.191Z,14.07
2023-04-28T23:40:31.828Z,13.63
2023-04-28T23:42:58.397Z,13.93
2023-04-28T23:45:25.513Z,14.77
2023-04-28T23:47:53.343Z,14.93
2023-04-28T23:50:19.984Z,17.55
2023-04-28T23:52:47.201Z,17.58
2023-04-28T23:55:13.783Z,15.13
2023-04-28T23:57:40.377Z,14.95
